createdAt,value
2023-10-06T00:00:35.373Z,13.41
2023-10-06T00:03:13.484Z,13.40
2023-10-06T00:05:40.150Z,13.42
2023-10-06T00:08:31.433Z,13.39
2023-10-06T00:11:04.397Z,13.40
2023-10-06T00:13:40.511Z,13.41
2023-10-06T00:16:08.901Z,13.40
2023-10-06T00:18:47.616Z,13.40
2023-10-06T00:21:23.042Z,13.38
2023-10-06T00:23:50.646Z,13.36
2023-10-06T00:26:21.110Z,13.31
2023-10-06T00:28:47.707Z,13.31
2023-10-06T00:31:15.129Z,13.28
2023-10-06T00:33:43.695Z,13.27
2023-10-06T00:36:14.916Z,13.24
2023-10-06T00:38:55.478Z,13.23
2023-10-06T00:41:27.811Z,13.22
2023-10-06T00:43:56.524Z,13.20
2023-10-06T00:46:23.031Z,13.18
2023-10-06T00:49:08.147Z,13.18
2023-10-06T00:51:34.778Z,13.17
2023-10-06T00:54:01.337Z,13.17
2023-10-06T00:56:37.446Z,13.16
2023-10-06T00:59:06.971Z,13.13
2023-10-06T01:01:38.945Z,13.13
2023-10-06T01:04:19.778Z,13.13
2023-10-06T01:06:49.026Z,13.11
2023-10-06T01:09:17.259Z,13.11
2023-10-06T01:11:51.655Z,13.10
2023-10-06T01:14:31.701Z,13.10
2023-10-06T01:17:26.962Z,13.08
2023-10-06T01:20:08.423Z,13.06
2023-10-06T01:22:47.696Z,13.06
2023-10-06T01:25:26.007Z,13.04
2023-10-06T01:27:52.785Z,13.02
2023-10-06T01:30:19.893Z,13.00
2023-10-06T01:32:56.165Z,12.98
2023-10-06T01:35:25.151Z,12.98
2023-10-06T01:38:04.575Z,12.96
2023-10-06T01:40:31.033Z,12.94
2023-10-06T01:43:01.730Z,12.94
2023-10-06T01:45:31.904Z,12.92
2023-10-06T01:48:13.457Z,12.90
2023-10-06T01:50:43.378Z,12.90
2023-10-06T01:53:22.437Z,12.89
2023-10-06T01:55:53.757Z,12.90
2023-10-06T01:58:20.461Z,12.87
2023-10-06T02:00:49.909Z,12.87
2023-10-06T02:03:19.299Z,12.87
2023-10-06T02:05:46.002Z,12.86
2023-10-06T02:08:22.328Z,12.86
2023-10-06T02:10:54.156Z,12.86
2023-10-06T02:13:23.637Z,12.86
2023-10-06T02:16:04.209Z,12.86
2023-10-06T02:18:39.391Z,12.84
2023-10-06T02:21:34.337Z,12.83
2023-10-06T02:24:09.893Z,12.82
2023-10-06T02:26:38.806Z,12.82
2023-10-06T02:29:25.815Z,12.82
2023-10-06T02:31:53.253Z,12.80
2023-10-06T02:34:47.912Z,12.80
2023-10-06T02:37:14.557Z,12.79
2023-10-06T02:39:46.773Z,12.78
2023-10-06T02:42:16.636Z,12.77
2023-10-06T02:44:43.608Z,12.74
2023-10-06T02:47:20.588Z,12.72
2023-10-06T02:49:52.049Z,12.72
2023-10-06T02:52:34.326Z,12.70
2023-10-06T02:55:03.759Z,12.69
2023-10-06T02:57:38.524Z,12.68
2023-10-06T03:00:26.795Z,12.70
2023-10-06T03:03:03.496Z,12.68
2023-10-06T03:05:34.526Z,12.68
2023-10-06T03:08:10.997Z,12.68
2023-10-06T03:10:46.172Z,12.69
2023-10-06T03:13:16.168Z,12.68
2023-10-06T03:15:50.076Z,12.68
2023-10-06T03:18:20.214Z,12.68
2023-10-06T03:21:00.397Z,12.66
2023-10-06T03:23:33.384Z,12.67
2023-10-06T03:26:03.735Z,12.67
2023-10-06T03:28:44.624Z,12.65
2023-10-06T03:31:32.349Z,12.65
2023-10-06T03:33:58.755Z,12.65
2023-10-06T03:36:48.332Z,12.65
2023-10-06T03:39:25.553Z,12.64
2023-10-06T03:41:57.305Z,12.64
2023-10-06T03:44:31.493Z,12.64
2023-10-06T03:47:04.498Z,12.63
2023-10-06T03:49:34.988Z,12.64
2023-10-06T03:52:06.745Z,12.64
2023-10-06T03:54:37.547Z,12.63
2023-10-06T03:57:07.943Z,12.63
2023-10-06T03:59:40.303Z,12.62
2023-10-06T04:04:54.164Z,12.66
2023-10-06T04:07:24.908Z,12.67
2023-10-06T04:09:54.055Z,12.70
2023-10-06T04:12:22.882Z,12.71
2023-10-06T04:14:49.311Z,12.69
2023-10-06T04:17:20.329Z,12.69
2023-10-06T04:19:52.729Z,12.70
2023-10-06T04:22:27.622Z,12.71
2023-10-06T04:24:54.060Z,12.70
2023-10-06T04:27:25.651Z,12.71
2023-10-06T04:29:54.804Z,12.73
2023-10-06T04:32:29.079Z,12.70
2023-10-06T04:34:55.707Z,12.73
2023-10-06T04:37:23.210Z,12.75
2023-10-06T04:39:52.804Z,12.75
2023-10-06T04:42:19.826Z,12.77
2023-10-06T04:44:54.118Z,12.78
2023-10-06T04:47:24.090Z,12.78
2023-10-06T04:49:56.853Z,12.78
2023-10-06T04:52:28.757Z,12.78
2023-10-06T05:00:28.182Z,12.80
2023-10-06T05:02:54.661Z,12.81
2023-10-06T05:05:27.243Z,12.81
2023-10-06T05:07:57.909Z,12.80
2023-10-06T05:10:26.731Z,12.79
2023-10-06T05:12:56.163Z,12.80
2023-10-06T05:15:25.228Z,12.79
2023-10-06T05:17:58.027Z,12.81
2023-10-06T05:20:34.698Z,12.80
2023-10-06T05:23:14.236Z,12.81
2023-10-06T05:25:46.157Z,12.83
2023-10-06T05:28:15.362Z,12.83
2023-10-06T05:30:45.740Z,12.86
2023-10-06T05:33:12.404Z,12.87
2023-10-06T05:35:42.349Z,12.89
2023-10-06T05:38:14.322Z,12.91
2023-10-06T05:40:45.390Z,12.94
2023-10-06T05:43:18.622Z,12.97
2023-10-06T05:45:56.488Z,13.01
2023-10-06T05:48:34.959Z,13.05
2023-10-06T05:51:10.292Z,13.08
2023-10-06T05:53:44.307Z,13.15
2023-10-06T05:56:16.436Z,13.19
2023-10-06T05:58:44.588Z,13.26
2023-10-06T06:01:21.864Z,13.31
2023-10-06T06:03:49.052Z,13.38
2023-10-06T06:06:17.020Z,13.43
2023-10-06T06:08:49.565Z,13.47
2023-10-06T06:11:19.447Z,13.47
2023-10-06T06:13:58.910Z,13.52
2023-10-06T06:16:33.163Z,13.56
2023-10-06T06:19:05.071Z,13.60
2023-10-06T06:21:31.776Z,13.64
2023-10-06T06:23:58.955Z,13.64
2023-10-06T06:26:29.186Z,13.65
2023-10-06T06:28:55.670Z,13.64
2023-10-06T06:31:25.306Z,13.67
2023-10-06T06:33:57.910Z,13.71
2023-10-06T06:36:24.948Z,13.71
2023-10-06T06:38:54.890Z,13.72
2023-10-06T06:41:22.651Z,13.74
2023-10-06T06:43:49.422Z,13.75
2023-10-06T06:46:18.349Z,13.75
2023-10-06T06:48:48.176Z,13.78
2023-10-06T06:51:19.891Z,13.79
2023-10-06T06:53:49.278Z,13.82
2023-10-06T06:56:25.722Z,13.84
2023-10-06T06:58:57.351Z,13.85
2023-10-06T07:01:34.496Z,13.85
2023-10-06T07:04:07.145Z,13.85
2023-10-06T07:06:36.686Z,13.89
2023-10-06T07:09:11.104Z,13.94
2023-10-06T07:11:37.666Z,13.99
2023-10-06T07:14:04.801Z,14.11
2023-10-06T07:16:35.639Z,14.19
2023-10-06T07:19:02.044Z,14.28
2023-10-06T07:21:29.432Z,14.37
2023-10-06T07:24:02.889Z,14.46
2023-10-06T07:26:30.408Z,14.62
2023-10-06T07:29:00.658Z,14.74
2023-10-06T07:31:30.206Z,14.82
2023-10-06T07:34:01.292Z,14.92
2023-10-06T07:36:31.830Z,15.08
2023-10-06T07:38:58.948Z,15.21
2023-10-06T07:41:28.486Z,15.32
2023-10-06T07:43:55.766Z,15.37
2023-10-06T07:46:22.363Z,15.51
2023-10-06T07:48:52.100Z,15.61
2023-10-06T07:51:18.602Z,15.76
2023-10-06T07:53:45.072Z,15.74
2023-10-06T07:56:13.362Z,15.69
2023-10-06T07:58:42.963Z,15.66
2023-10-06T08:01:11.784Z,15.77
2023-10-06T08:03:45.821Z,15.90
2023-10-06T08:06:13.071Z,16.02
2023-10-06T08:08:42.756Z,16.12
2023-10-06T08:11:10.456Z,16.28
2023-10-06T08:16:21.148Z,16.51
2023-10-06T08:18:47.675Z,16.61
2023-10-06T08:21:14.231Z,16.64
2023-10-06T08:23:40.740Z,16.70
2023-10-06T08:26:10.722Z,16.74
2023-10-06T08:28:41.806Z,16.70
2023-10-06T08:31:18.359Z,16.76
2023-10-06T08:33:46.721Z,16.86
2023-10-06T08:36:22.996Z,16.85
2023-10-06T08:38:51.676Z,16.78
2023-10-06T08:41:39.263Z,16.82
2023-10-06T08:44:08.620Z,16.82
2023-10-06T08:46:41.814Z,16.86
2023-10-06T08:49:08.886Z,16.86
2023-10-06T08:51:38.145Z,16.80
2023-10-06T08:54:14.741Z,16.77
2023-10-06T08:56:44.341Z,16.77
2023-10-06T08:59:16.390Z,16.87
2023-10-06T09:01:46.710Z,16.89
2023-10-06T09:04:17.564Z,16.94
2023-10-06T09:07:18.474Z,17.00
2023-10-06T09:09:45.049Z,17.14
2023-10-06T09:12:25.012Z,17.23
2023-10-06T09:15:02.381Z,17.29
2023-10-06T09:17:38.548Z,17.34
2023-10-06T09:20:13.408Z,17.33
2023-10-06T09:22:51.486Z,17.29
2023-10-06T09:25:22.546Z,17.25
2023-10-06T09:27:50.125Z,17.32
2023-10-06T09:30:23.897Z,17.37
2023-10-06T09:33:06.375Z,17.44
2023-10-06T09:35:33.381Z,17.41
2023-10-06T09:38:15.040Z,17.60
2023-10-06T09:40:43.710Z,17.62
2023-10-06T09:43:22.485Z,17.75
2023-10-06T09:45:53.353Z,17.98
2023-10-06T09:48:28.801Z,18.15
2023-10-06T09:51:02.711Z,18.20
2023-10-06T09:53:31.578Z,18.31
2023-10-06T09:56:07.434Z,18.32
2023-10-06T09:58:40.496Z,18.47
2023-10-06T10:01:07.742Z,18.48
2023-10-06T10:03:38.684Z,18.65
2023-10-06T10:06:09.664Z,18.77
2023-10-06T10:08:37.706Z,18.73
2023-10-06T10:11:31.719Z,18.88
2023-10-06T10:14:26.737Z,19.23
2023-10-06T10:17:15.312Z,19.26
2023-10-06T10:22:32.608Z,19.38
2023-10-06T10:27:40.147Z,19.10
2023-10-06T10:30:16.247Z,18.87
2023-10-06T10:32:46.459Z,18.83
2023-10-06T10:35:19.069Z,18.71
2023-10-06T10:38:07.901Z,18.62
2023-10-06T10:40:48.721Z,18.64
2023-10-06T10:43:20.053Z,18.67
2023-10-06T10:45:49.496Z,18.63
2023-10-06T10:48:17.170Z,18.78
2023-10-06T10:51:12.781Z,18.96
2023-10-06T10:53:48.595Z,19.16
2023-10-06T10:56:35.339Z,19.37
2023-10-06T10:59:03.573Z,19.75
2023-10-06T11:01:39.750Z,19.85
2023-10-06T11:04:33.314Z,19.85
2023-10-06T11:07:16.238Z,20.00
2023-10-06T11:09:48.146Z,20.19
2023-10-06T11:12:25.604Z,20.13
2023-10-06T11:20:34.925Z,19.83
2023-10-06T11:23:04.675Z,19.78
2023-10-06T11:25:34.171Z,19.78
2023-10-06T11:28:06.004Z,19.80
2023-10-06T11:30:39.881Z,19.91
2023-10-06T11:33:14.892Z,19.89
2023-10-06T11:35:42.415Z,20.02
2023-10-06T11:38:20.628Z,19.96
2023-10-06T11:43:34.946Z,19.77
2023-10-06T11:46:06.515Z,19.80
2023-10-06T11:48:37.261Z,19.89
2023-10-06T11:51:09.130Z,20.03
2023-10-06T11:53:46.249Z,20.07
2023-10-06T11:56:15.234Z,20.00
2023-10-06T11:58:48.693Z,20.01
2023-10-06T12:01:41.903Z,19.98
2023-10-06T12:04:36.178Z,20.22
2023-10-06T12:07:24.978Z,20.13
2023-10-06T12:10:07.147Z,20.03
2023-10-06T12:12:36.417Z,19.88
2023-10-06T12:15:03.762Z,19.65
2023-10-06T12:17:37.604Z,19.47
2023-10-06T12:20:08.172Z,19.42
2023-10-06T12:22:42.887Z,19.37
2023-10-06T12:25:13.736Z,19.42
2023-10-06T12:27:45.025Z,19.52
2023-10-06T12:33:13.812Z,19.49
2023-10-06T12:35:50.560Z,19.48
2023-10-06T12:38:42.927Z,19.59
2023-10-06T12:41:13.337Z,19.70
2023-10-06T12:43:39.987Z,19.69
2023-10-06T12:46:12.089Z,19.67
2023-10-06T12:48:39.940Z,19.65
2023-10-06T12:51:19.079Z,19.58
2023-10-06T12:53:49.336Z,19.63
2023-10-06T12:56:18.735Z,19.65
2023-10-06T12:58:45.249Z,19.73
2023-10-06T13:01:14.588Z,19.75
2023-10-06T13:03:44.131Z,19.77
2023-10-06T13:08:57.329Z,19.67
2023-10-06T13:11:28.858Z,19.70
2023-10-06T13:13:57.879Z,19.81
2023-10-06T13:16:25.011Z,19.92
2023-10-06T13:18:55.121Z,19.89
2023-10-06T13:21:27.466Z,19.96
2023-10-06T13:24:02.289Z,19.98
2023-10-06T13:26:40.529Z,20.17
2023-10-06T13:29:10.563Z,20.24
2023-10-06T13:31:38.248Z,20.09
2023-10-06T13:34:12.824Z,20.18
2023-10-06T13:36:42.407Z,20.24
2023-10-06T13:41:55.238Z,20.04
2023-10-06T13:44:25.158Z,19.98
2023-10-06T13:46:53.321Z,20.03
2023-10-06T13:49:25.001Z,20.10
2023-10-06T13:51:51.472Z,20.17
2023-10-06T13:54:21.490Z,20.20
2023-10-06T13:56:51.525Z,20.25
2023-10-06T13:59:26.885Z,20.30
2023-10-06T14:01:53.924Z,20.32
2023-10-06T14:07:16.465Z,20.39
2023-10-06T14:09:42.849Z,20.38
2023-10-06T14:12:18.838Z,20.40
2023-10-06T14:14:47.858Z,20.29
2023-10-06T14:20:24.761Z,20.31
2023-10-06T14:23:04.051Z,20.36
2023-10-06T14:28:19.875Z,20.45
2023-10-06T14:30:52.331Z,20.48
2023-10-06T14:33:48.890Z,20.43
2023-10-06T14:36:15.479Z,20.31
2023-10-06T14:41:41.551Z,20.23
2023-10-06T14:44:28.775Z,20.18
2023-10-06T14:46:59.816Z,20.21
2023-10-06T14:54:53.263Z,20.10
2023-10-06T14:57:23.114Z,20.09
2023-10-06T14:59:54.101Z,20.09
2023-10-06T15:02:25.882Z,20.09
2023-10-06T15:04:52.664Z,20.13
2023-10-06T15:07:22.571Z,20.08
2023-10-06T15:09:50.520Z,19.96
2023-10-06T15:12:18.378Z,19.92
2023-10-06T15:14:46.012Z,19.92
2023-10-06T15:17:12.931Z,19.82
2023-10-06T15:19:39.473Z,19.75
2023-10-06T15:22:29.275Z,19.69
2023-10-06T15:24:58.626Z,19.58
2023-10-06T15:30:06.029Z,19.50
2023-10-06T15:32:32.510Z,19.48
2023-10-06T15:35:02.222Z,19.41
2023-10-06T15:37:32.299Z,19.36
2023-10-06T15:39:59.417Z,19.35
2023-10-06T15:42:26.659Z,19.32
2023-10-06T15:45:01.367Z,19.26
2023-10-06T15:47:30.624Z,19.22
2023-10-06T15:50:10.763Z,19.17
2023-10-06T15:52:50.112Z,19.09
2023-10-06T15:55:17.056Z,19.03
2023-10-06T15:57:47.582Z,18.99
2023-10-06T16:00:18.567Z,18.95
2023-10-06T16:08:18.143Z,18.78
2023-10-06T16:10:44.651Z,18.72
2023-10-06T16:13:14.658Z,18.68
2023-10-06T16:15:55.206Z,18.66
2023-10-06T16:18:30.701Z,18.62
2023-10-06T16:21:00.903Z,18.58
2023-10-06T16:23:27.962Z,18.56
2023-10-06T16:25:54.766Z,18.53
2023-10-06T16:28:30.671Z,18.52
2023-10-06T16:31:04.698Z,18.49
2023-10-06T16:33:37.215Z,18.47
2023-10-06T16:36:13.981Z,18.42
2023-10-06T16:38:42.058Z,18.40
2023-10-06T16:41:15.828Z,18.37
2023-10-06T16:43:42.721Z,18.35
2023-10-06T16:46:09.245Z,18.33
2023-10-06T16:48:41.341Z,18.33
2023-10-06T16:51:16.651Z,18.32
2023-10-06T16:53:43.187Z,18.29
2023-10-06T16:56:09.936Z,18.23
2023-10-06T16:58:39.728Z,18.20
2023-10-06T17:01:09.383Z,18.17
2023-10-06T17:03:36.220Z,18.11
2023-10-06T17:06:05.357Z,18.05
2023-10-06T17:08:32.006Z,17.98
2023-10-06T17:11:13.099Z,17.92
2023-10-06T17:13:39.657Z,17.86
2023-10-06T17:16:10.442Z,17.79
2023-10-06T17:18:37.592Z,17.75
2023-10-06T17:21:12.992Z,17.67
2023-10-06T17:23:39.949Z,17.62
2023-10-06T17:26:10.084Z,17.58
2023-10-06T17:28:36.666Z,17.51
2023-10-06T17:31:03.248Z,17.45
2023-10-06T17:33:30.166Z,17.39
2023-10-06T17:36:04.137Z,17.35
2023-10-06T17:38:30.766Z,17.30
2023-10-06T17:41:04.123Z,17.27
2023-10-06T17:43:34.363Z,17.21
2023-10-06T17:46:05.188Z,17.18
2023-10-06T17:48:31.734Z,17.11
2023-10-06T17:50:58.651Z,17.08
2023-10-06T17:53:27.725Z,17.02
2023-10-06T17:56:00.511Z,16.97
2023-10-06T17:58:30.087Z,16.95
2023-10-06T18:00:59.501Z,16.95
2023-10-06T18:03:29.110Z,16.92
2023-10-06T18:05:55.984Z,16.89
2023-10-06T18:08:22.466Z,16.85
2023-10-06T18:10:49.195Z,16.84
2023-10-06T18:13:25.798Z,16.84
2023-10-06T18:16:06.683Z,16.81
2023-10-06T18:18:33.742Z,16.80
2023-10-06T18:21:04.439Z,16.78
2023-10-06T18:23:34.375Z,16.77
2023-10-06T18:26:14.640Z,16.75
2023-10-06T18:28:44.217Z,16.73
2023-10-06T18:31:13.135Z,16.71
2023-10-06T18:33:39.764Z,16.70
2023-10-06T18:36:12.321Z,16.72
2023-10-06T18:38:39.171Z,16.71
2023-10-06T18:41:12.482Z,16.67
2023-10-06T18:43:42.541Z,16.64
2023-10-06T18:46:12.910Z,16.63
2023-10-06T18:48:42.158Z,16.60
2023-10-06T18:51:08.885Z,16.58
2023-10-06T18:53:37.744Z,16.56
2023-10-06T18:56:08.312Z,16.56
2023-10-06T18:58:37.394Z,16.56
2023-10-06T19:01:05.461Z,16.55
2023-10-06T19:03:32.060Z,16.54
2023-10-06T19:06:00.112Z,16.52
2023-10-06T19:08:29.269Z,16.49
2023-10-06T19:10:55.853Z,16.46
2023-10-06T19:13:22.628Z,16.45
2023-10-06T19:15:59.530Z,16.43
2023-10-06T19:18:28.214Z,16.43
2023-10-06T19:21:03.367Z,16.43
2023-10-06T19:23:36.236Z,16.38
2023-10-06T19:26:07.447Z,16.35
2023-10-06T19:28:45.321Z,16.33
2023-10-06T19:31:14.576Z,16.31
2023-10-06T19:33:48.500Z,16.32
2023-10-06T19:36:20.712Z,16.28
2023-10-06T19:38:53.121Z,16.27
2023-10-06T19:41:29.588Z,16.24
2023-10-06T19:43:56.150Z,16.24
2023-10-06T19:46:26.235Z,16.24
2023-10-06T19:48:56.268Z,16.19
2023-10-06T19:51:26.622Z,16.17
2023-10-06T19:53:55.832Z,16.16
2023-10-06T19:56:28.607Z,16.14
2023-10-06T19:58:55.642Z,16.16
2023-10-06T20:01:26.296Z,16.11
2023-10-06T20:03:56.995Z,16.07
2023-10-06T20:06:23.515Z,16.02
2023-10-06T20:08:50.083Z,16.01
2023-10-06T20:11:25.048Z,16.00
2023-10-06T20:13:51.756Z,15.95
2023-10-06T20:19:05.125Z,15.90
2023-10-06T20:21:31.539Z,15.87
2023-10-06T20:23:58.323Z,15.85
2023-10-06T20:26:29.483Z,15.84
2023-10-06T20:28:56.353Z,15.79
2023-10-06T20:31:23.210Z,15.79
2023-10-06T20:33:52.756Z,15.82
2023-10-06T20:36:19.231Z,15.80
2023-10-06T20:38:45.626Z,15.77
2023-10-06T20:41:16.026Z,15.77
2023-10-06T20:43:45.528Z,15.76
2023-10-06T20:46:12.051Z,15.74
2023-10-06T20:48:41.112Z,15.72
2023-10-06T20:51:18.032Z,15.70
2023-10-06T20:53:46.896Z,15.69
2023-10-06T20:56:14.973Z,15.67
2023-10-06T20:58:44.704Z,15.66
2023-10-06T21:01:14.142Z,15.66
2023-10-06T21:03:40.624Z,15.64
2023-10-06T21:06:09.319Z,15.61
2023-10-06T21:08:36.637Z,15.59
2023-10-06T21:11:03.110Z,15.58
2023-10-06T21:13:32.076Z,15.58
2023-10-06T21:16:01.636Z,15.55
2023-10-06T21:18:30.661Z,15.54
2023-10-06T21:20:57.203Z,15.53
2023-10-06T21:23:23.698Z,15.49
2023-10-06T21:25:54.695Z,15.48
2023-10-06T21:28:23.584Z,15.44
2023-10-06T21:30:51.306Z,15.42
2023-10-06T21:33:20.800Z,15.42
2023-10-06T21:35:50.753Z,15.42
2023-10-06T21:38:17.311Z,15.40
2023-10-06T21:40:47.346Z,15.39
2023-10-06T21:43:16.955Z,15.38
2023-10-06T21:45:46.330Z,15.37
2023-10-06T21:48:15.648Z,15.35
2023-10-06T21:50:51.700Z,15.35
2023-10-06T21:53:21.194Z,15.31
2023-10-06T21:55:49.874Z,15.31
2023-10-06T21:58:22.604Z,15.29
2023-10-06T22:00:59.608Z,15.28
2023-10-06T22:03:30.085Z,15.26
2023-10-06T22:06:00.831Z,15.27
2023-10-06T22:08:27.368Z,15.29
2023-10-06T22:11:04.404Z,15.27
2023-10-06T22:13:32.941Z,15.25
2023-10-06T22:16:03.914Z,15.23
2023-10-06T22:18:33.263Z,15.21
2023-10-06T22:21:02.881Z,15.21
2023-10-06T22:23:35.111Z,15.20
2023-10-06T22:26:01.618Z,15.19
2023-10-06T22:28:31.061Z,15.18
2023-10-06T22:31:04.868Z,15.18
2023-10-06T22:33:34.879Z,15.14
2023-10-06T22:36:04.880Z,15.13
2023-10-06T22:41:20.016Z,15.10
2023-10-06T22:43:46.522Z,15.10
2023-10-06T22:46:13.014Z,15.09
2023-10-06T22:48:44.643Z,15.08
2023-10-06T22:51:14.698Z,15.07
2023-10-06T22:53:52.406Z,15.08
2023-10-06T22:56:19.083Z,15.07
2023-10-06T22:58:54.849Z,15.09
2023-10-06T23:01:21.413Z,15.07
2023-10-06T23:03:51.127Z,15.04
2023-10-06T23:06:18.502Z,15.02
2023-10-06T23:08:44.983Z,15.01
2023-10-06T23:11:22.298Z,15.01
2023-10-06T23:16:47.326Z,14.97
2023-10-06T23:19:23.259Z,14.96
2023-10-06T23:21:49.674Z,14.95
2023-10-06T23:29:45.659Z,14.95
2023-10-06T23:32:12.332Z,14.97
2023-10-06T23:34:39.204Z,14.98
2023-10-06T23:37:07.882Z,14.99
2023-10-06T23:39:38.476Z,15.02
2023-10-06T23:42:10.634Z,15.05
2023-10-06T23:44:39.984Z,15.09
2023-10-06T23:47:13.774Z,15.10
2023-10-06T23:49:41.462Z,15.13
2023-10-06T23:52:27.950Z,15.15
2023-10-06T23:57:55.963Z,15.13
